createdAt,value
2023-05-12T00:00:19.751Z,3.67
2023-05-12T00:02:47.300Z,4.35
2023-05-12T00:05:14.231Z,4.57
2023-05-12T00:07:41.205Z,3.03
2023-05-12T00:10:08.827Z,3.00
2023-05-12T00:12:36.900Z,3.00
2023-05-12T00:15:04.605Z,2.95
2023-05-12T00:17:32.018Z,2.22
2023-05-12T00:19:59.387Z,3.85
2023-05-12T00:22:26.898Z,3.97
2023-05-12T00:24:54.301Z,4.07
2023-05-12T00:27:21.692Z,3.42
2023-05-12T00:29:48.991Z,2.78
2023-05-12T00:32:16.678Z,3.72
2023-05-12T00:34:44.033Z,4.32
2023-05-12T00:37:11.357Z,2.88
2023-05-12T00:39:38.845Z,6.88
2023-05-12T00:42:06.408Z,4.53
2023-05-12T00:44:33.895Z,5.30
2023-05-12T00:47:01.564Z,2.78
2023-05-12T00:49:29.010Z,3.60
2023-05-12T00:51:58.213Z,2.88
2023-05-12T00:54:30.314Z,2.58
2023-05-12T00:56:58.244Z,2.75
2023-05-12T00:59:25.560Z,3.85
2023-05-12T01:01:53.124Z,3.38
2023-05-12T01:04:20.648Z,3.60
2023-05-12T01:07:14.994Z,3.22
2023-05-12T01:09:42.579Z,4.70
2023-05-12T01:12:10.636Z,4.93
2023-05-12T01:14:38.696Z,4.78
2023-05-12T01:17:13.180Z,2.65
2023-05-12T01:19:51.987Z,3.10
2023-05-12T01:22:19.942Z,2.40
2023-05-12T01:24:54.049Z,3.00
2023-05-12T01:27:25.383Z,3.20
2023-05-12T01:29:55.832Z,4.55
2023-05-12T01:32:23.473Z,3.38
2023-05-12T01:34:50.952Z,4.70
2023-05-12T01:37:18.838Z,3.42
2023-05-12T01:39:46.944Z,4.57
2023-05-12T01:42:19.292Z,3.95
2023-05-12T01:44:47.157Z,3.92
2023-05-12T01:47:15.810Z,3.60
2023-05-12T01:49:48.411Z,3.42
2023-05-12T01:52:17.266Z,4.55
2023-05-12T01:54:44.624Z,3.97
2023-05-12T01:57:12.670Z,5.10
2023-05-12T01:59:40.140Z,4.72
2023-05-12T02:02:09.771Z,3.53
2023-05-12T02:04:37.868Z,3.95
2023-05-12T02:07:05.208Z,4.05
2023-05-12T02:09:32.528Z,3.95
2023-05-12T02:12:02.503Z,3.95
2023-05-12T02:14:30.008Z,4.07
2023-05-12T02:16:57.710Z,3.33
2023-05-12T02:19:26.342Z,3.80
2023-05-12T02:21:53.658Z,5.43
2023-05-12T02:24:22.169Z,4.90
2023-05-12T02:26:49.778Z,5.00
2023-05-12T02:29:17.141Z,3.95
2023-05-12T02:31:44.490Z,4.57
2023-05-12T02:34:16.121Z,3.85
2023-05-12T02:36:43.635Z,5.15
2023-05-12T02:39:14.999Z,4.28
2023-05-12T02:41:42.784Z,3.90
2023-05-12T02:44:10.097Z,3.78
2023-05-12T02:46:37.487Z,5.95
2023-05-12T02:49:04.917Z,4.07
2023-05-12T02:51:32.346Z,5.40
2023-05-12T02:53:59.652Z,4.32
2023-05-12T02:56:27.077Z,4.38
2023-05-12T02:58:55.093Z,3.88
2023-05-12T03:01:22.498Z,5.38
2023-05-12T03:03:50.048Z,7.25
2023-05-12T03:06:17.906Z,5.13
2023-05-12T03:08:45.224Z,3.85
2023-05-12T03:11:12.797Z,3.97
2023-05-12T03:13:40.151Z,6.18
2023-05-12T03:16:07.775Z,3.58
2023-05-12T03:18:35.136Z,5.82
2023-05-12T03:21:03.601Z,4.35
2023-05-12T03:23:31.450Z,4.03
2023-05-12T03:25:58.770Z,4.85
2023-05-12T03:28:27.401Z,6.60
2023-05-12T03:30:55.073Z,7.57
2023-05-12T03:33:23.650Z,4.30
2023-05-12T03:35:53.156Z,6.63
2023-05-12T03:38:20.464Z,5.55
2023-05-12T03:40:52.512Z,5.70
2023-05-12T03:43:21.201Z,5.38
2023-05-12T03:45:49.249Z,5.57
2023-05-12T03:48:16.595Z,5.93
2023-05-12T03:50:43.928Z,6.50
2023-05-12T03:53:11.831Z,5.57
2023-05-12T03:55:40.473Z,4.65
2023-05-12T03:58:09.035Z,7.30
2023-05-12T04:00:36.989Z,6.75
2023-05-12T04:03:04.464Z,7.78
2023-05-12T04:05:31.810Z,6.53
2023-05-12T04:07:59.816Z,5.68
2023-05-12T04:10:27.171Z,6.75
2023-05-12T04:12:54.592Z,6.35
2023-05-12T04:15:22.312Z,5.85
2023-05-12T04:17:51.008Z,5.32
2023-05-12T04:20:19.137Z,5.97
2023-05-12T04:22:47.688Z,6.50
2023-05-12T04:25:16.473Z,7.38
2023-05-12T04:27:44.088Z,9.05
2023-05-12T04:30:12.243Z,6.13
2023-05-12T04:32:42.143Z,9.18
2023-05-12T04:35:09.937Z,6.43
2023-05-12T04:37:37.577Z,5.88
2023-05-12T04:40:07.250Z,9.15
2023-05-12T04:42:35.121Z,5.88
2023-05-12T04:45:02.646Z,7.13
2023-05-12T04:47:30.183Z,5.75
2023-05-12T04:49:57.536Z,6.45
2023-05-12T04:52:25.958Z,9.10
2023-05-12T04:54:53.542Z,6.13
2023-05-12T04:57:20.917Z,8.82
2023-05-12T04:59:49.223Z,8.77
2023-05-12T05:02:16.730Z,8.30
2023-05-12T05:04:44.147Z,4.60
2023-05-12T05:07:11.952Z,6.00
2023-05-12T05:09:39.420Z,7.88
2023-05-12T05:12:07.301Z,6.60
2023-05-12T05:14:35.076Z,7.10
2023-05-12T05:17:03.091Z,5.88
2023-05-12T05:22:03.382Z,7.10
2023-05-12T05:24:30.833Z,5.65
2023-05-12T05:26:59.608Z,5.97
2023-05-12T05:29:27.101Z,5.00
2023-05-12T05:31:54.501Z,6.78
2023-05-12T05:34:21.927Z,5.10
2023-05-12T05:36:49.468Z,6.68
2023-05-12T05:39:16.412Z,4.88
2023-05-12T05:59:41.608Z,4.47
2023-05-12T06:19:55.410Z,7.18
2023-05-12T06:22:23.026Z,5.35
2023-05-12T06:24:56.035Z,6.28
2023-05-12T06:27:57.311Z,6.20
2023-05-12T06:30:27.898Z,6.18
2023-05-12T06:32:55.432Z,4.45
2023-05-12T06:35:23.240Z,7.38
2023-05-12T06:38:51.759Z,6.78
2023-05-12T06:41:22.992Z,7.50
2023-05-12T06:47:57.756Z,6.37
2023-05-12T06:55:01.979Z,4.65
2023-05-12T06:55:02.506Z,4.55
2023-05-12T07:00:27.598Z,6.20
2023-05-12T07:03:03.964Z,4.72
2023-05-12T07:05:49.349Z,5.30
2023-05-12T07:08:24.950Z,3.83
2023-05-12T07:11:02.202Z,4.47
2023-05-12T07:13:29.992Z,6.30
2023-05-12T07:23:24.898Z,8.05
2023-05-12T07:26:10.686Z,4.00
2023-05-12T07:28:44.484Z,4.95
2023-05-12T07:34:22.892Z,4.68
2023-05-12T07:36:50.845Z,4.88
2023-05-12T07:39:43.782Z,4.22
2023-05-12T07:42:22.595Z,4.43
2023-05-12T07:49:12.711Z,3.70
2023-05-12T07:51:40.516Z,4.72
2023-05-12T07:59:28.253Z,5.75
2023-05-12T08:02:23.065Z,4.70
2023-05-12T08:04:54.420Z,6.67
2023-05-12T08:07:55.041Z,5.93
2023-05-12T08:10:26.693Z,4.93
2023-05-12T08:16:21.275Z,7.10
2023-05-12T08:19:02.433Z,6.75
2023-05-12T08:21:35.406Z,4.85
2023-05-12T08:24:13.252Z,4.40
2023-05-12T08:27:24.190Z,5.05
2023-05-12T08:30:31.003Z,4.97
2023-05-12T08:33:04.738Z,5.10
2023-05-12T08:36:51.554Z,4.90
2023-05-12T08:46:54.677Z,5.90
2023-05-12T09:23:00.273Z,3.15
2023-05-12T09:25:36.693Z,3.63
2023-05-12T09:29:48.239Z,4.00
2023-05-12T09:49:12.354Z,3.63
2023-05-12T09:56:24.841Z,3.60
2023-05-12T09:59:06.212Z,3.80
2023-05-12T10:02:00.883Z,4.20
2023-05-12T10:07:37.800Z,2.53
2023-05-12T10:10:11.456Z,2.92
2023-05-12T10:13:29.556Z,4.85
2023-05-12T10:16:28.748Z,2.70
2023-05-12T10:19:00.779Z,4.72
2023-05-12T10:21:34.546Z,3.75
2023-05-12T10:25:19.705Z,5.93
2023-05-12T10:28:00.464Z,3.65
2023-05-12T10:31:06.037Z,4.30
2023-05-12T10:37:34.777Z,3.28
2023-05-12T10:45:07.370Z,4.53
2023-05-12T10:47:51.292Z,5.32
2023-05-12T10:50:37.992Z,4.32
2023-05-12T10:53:47.835Z,2.78
2023-05-12T10:56:59.191Z,2.88
2023-05-12T11:04:13.665Z,3.78
2023-05-12T11:07:26.643Z,3.60
2023-05-12T11:10:05.376Z,4.45
2023-05-12T11:12:51.100Z,3.55
2023-05-12T11:24:18.191Z,4.00
2023-05-12T11:27:26.658Z,4.67
2023-05-12T11:30:04.159Z,5.75
2023-05-12T11:40:38.573Z,4.50
2023-05-12T11:46:29.861Z,6.90
2023-05-12T11:52:07.170Z,4.72
2023-05-12T11:55:20.803Z,4.15
2023-05-12T11:59:09.988Z,4.30
2023-05-12T12:01:48.251Z,6.93
2023-05-12T12:05:09.287Z,4.70
2023-05-12T12:08:19.230Z,5.32
2023-05-12T12:15:07.911Z,4.95
2023-05-12T12:18:07.916Z,3.53
2023-05-12T12:20:40.984Z,5.85
2023-05-12T12:23:31.633Z,4.60
2023-05-12T12:26:09.144Z,6.68
2023-05-12T12:28:39.826Z,6.45
2023-05-12T12:31:10.797Z,5.43
2023-05-12T12:33:46.671Z,6.65
2023-05-12T12:36:17.405Z,5.53
2023-05-12T12:41:39.540Z,5.07
2023-05-12T12:44:07.113Z,7.18
2023-05-12T12:46:55.825Z,5.28
2023-05-12T12:49:30.721Z,6.55
2023-05-12T13:05:58.402Z,7.38
2023-05-12T13:08:35.461Z,6.53
2023-05-12T13:13:51.489Z,5.50
2023-05-12T13:16:22.323Z,5.47
2023-05-12T13:18:50.948Z,5.40
2023-05-12T13:21:21.348Z,4.03
2023-05-12T13:23:54.017Z,4.35
2023-05-12T13:26:24.846Z,3.55
2023-05-12T13:28:52.493Z,5.88
2023-05-12T13:31:20.230Z,3.83
2023-05-12T13:33:57.297Z,5.80
2023-05-12T13:36:32.336Z,6.85
2023-05-12T13:38:59.950Z,4.72
2023-05-12T13:41:29.270Z,5.18
2023-05-12T13:43:57.757Z,5.60
2023-05-12T13:46:25.640Z,8.98
2023-05-12T13:48:53.069Z,4.80
2023-05-12T13:51:20.639Z,3.95
2023-05-12T13:53:47.918Z,6.13
2023-05-12T13:56:16.727Z,3.72
2023-05-12T13:58:45.267Z,5.75
2023-05-12T14:01:12.964Z,4.40
2023-05-12T14:03:44.952Z,4.90
2023-05-12T14:06:12.615Z,2.92
2023-05-12T14:08:41.506Z,3.45
2023-05-12T14:11:10.182Z,3.60
2023-05-12T14:13:37.682Z,4.82
2023-05-12T14:16:06.719Z,3.42
2023-05-12T14:18:34.188Z,3.53
2023-05-12T14:21:01.874Z,4.72
2023-05-12T14:23:29.182Z,6.00
2023-05-12T14:25:57.136Z,3.65
2023-05-12T14:28:24.443Z,5.57
2023-05-12T14:30:51.518Z,4.43
2023-05-12T14:33:18.848Z,4.72
2023-05-12T14:35:55.624Z,2.35
2023-05-12T14:38:26.798Z,2.22
2023-05-12T14:40:53.768Z,4.82
2023-05-12T14:43:20.689Z,2.88
2023-05-12T14:45:56.800Z,2.47
2023-05-12T14:48:27.589Z,3.15
2023-05-12T14:50:56.846Z,4.93
2023-05-12T14:53:24.376Z,2.83
2023-05-12T14:55:52.095Z,2.20
2023-05-12T14:58:21.551Z,2.03
2023-05-12T15:00:51.437Z,2.63
2023-05-12T15:03:20.642Z,1.88
2023-05-12T15:06:05.037Z,2.60
2023-05-12T15:08:33.166Z,3.38
2023-05-12T15:11:00.238Z,3.15
2023-05-12T15:13:27.188Z,2.88
2023-05-12T15:16:07.169Z,3.60
2023-05-12T15:18:37.834Z,3.33
2023-05-12T15:21:04.806Z,3.30
2023-05-12T15:23:31.839Z,2.45
2023-05-12T15:26:03.244Z,2.90
2023-05-12T15:28:34.933Z,3.60
2023-05-12T15:31:02.120Z,2.13
2023-05-12T15:33:30.439Z,2.05
2023-05-12T15:35:58.542Z,4.38
2023-05-12T15:38:26.143Z,3.80
2023-05-12T15:40:53.102Z,4.05
2023-05-12T15:43:19.990Z,2.28
2023-05-12T15:45:46.913Z,3.75
2023-05-12T15:48:13.883Z,4.28
2023-05-12T15:50:40.925Z,2.78
2023-05-12T15:53:07.914Z,2.33
2023-05-12T15:55:34.978Z,3.78
2023-05-12T15:58:03.421Z,3.33
2023-05-12T16:00:30.542Z,4.03
2023-05-12T16:02:57.908Z,4.55
2023-05-12T16:05:24.988Z,3.22
2023-05-12T16:07:54.549Z,4.97
2023-05-12T16:10:22.084Z,2.33
2023-05-12T16:12:49.183Z,2.42
2023-05-12T16:15:16.111Z,6.25
2023-05-12T16:17:43.574Z,4.30
2023-05-12T16:20:11.435Z,2.22
2023-05-12T16:22:38.377Z,3.47
2023-05-12T16:25:05.829Z,3.60
2023-05-12T16:27:33.621Z,3.03
2023-05-12T16:30:00.872Z,3.28
2023-05-12T16:32:27.784Z,4.07
2023-05-12T16:34:54.791Z,3.53
2023-05-12T16:37:22.842Z,4.82
2023-05-12T16:39:49.789Z,4.20
2023-05-12T16:42:16.896Z,3.85
2023-05-12T16:44:43.883Z,3.13
2023-05-12T16:47:10.968Z,2.45
2023-05-12T16:49:37.811Z,2.50
2023-05-12T16:52:04.967Z,2.80
2023-05-12T16:54:32.812Z,4.85
2023-05-12T16:57:02.128Z,4.50
2023-05-12T16:59:32.148Z,3.80
2023-05-12T17:01:59.862Z,4.35
2023-05-12T17:04:27.374Z,3.40
2023-05-12T17:06:54.660Z,3.55
2023-05-12T17:09:23.162Z,3.38
2023-05-12T17:11:50.340Z,5.88
2023-05-12T17:14:19.222Z,4.45
2023-05-12T17:16:46.649Z,3.72
2023-05-12T17:19:14.284Z,1.95
2023-05-12T17:21:42.413Z,2.40
2023-05-12T17:24:09.551Z,3.47
2023-05-12T17:26:36.496Z,2.50
2023-05-12T17:29:03.706Z,2.75
2023-05-12T17:31:30.640Z,3.42
2023-05-12T17:33:57.678Z,2.67
2023-05-12T17:36:24.748Z,3.45
2023-05-12T17:39:17.511Z,4.70
2023-05-12T17:41:44.492Z,2.42
2023-05-12T17:44:11.408Z,2.72
2023-05-12T17:46:38.391Z,2.75
2023-05-12T17:49:05.247Z,3.22
2023-05-12T17:51:32.126Z,4.68
2023-05-12T17:53:59.008Z,2.67
2023-05-12T17:56:26.456Z,2.97
2023-05-12T17:58:53.407Z,4.15
2023-05-12T18:01:20.322Z,2.85
2023-05-12T18:03:47.437Z,2.92
2023-05-12T18:06:15.583Z,2.70
2023-05-12T18:08:42.754Z,2.50
2023-05-12T18:11:10.563Z,2.78
2023-05-12T18:13:37.858Z,2.80
2023-05-12T18:16:07.388Z,3.92
2023-05-12T18:18:35.962Z,2.53
2023-05-12T18:21:03.301Z,3.50
2023-05-12T18:23:30.545Z,2.72
2023-05-12T18:25:57.459Z,2.63
2023-05-12T18:28:24.399Z,2.55
2023-05-12T18:30:51.757Z,4.38
2023-05-12T18:33:19.142Z,2.90
2023-05-12T18:35:46.211Z,2.85
2023-05-12T18:38:13.108Z,3.92
2023-05-12T18:40:40.233Z,3.78
2023-05-12T18:43:07.166Z,3.00
2023-05-12T18:45:34.303Z,2.65
2023-05-12T18:48:01.394Z,2.83
2023-05-12T18:50:28.340Z,2.80
2023-05-12T18:52:55.253Z,3.80
2023-05-12T18:55:22.456Z,3.38
2023-05-12T18:57:49.514Z,3.10
2023-05-12T19:00:17.170Z,3.05
2023-05-12T19:02:45.703Z,2.80
2023-05-12T19:05:12.673Z,4.05
2023-05-12T19:07:40.204Z,2.97
2023-05-12T19:10:09.843Z,3.45
2023-05-12T19:12:37.080Z,3.08
2023-05-12T19:15:04.733Z,3.88
2023-05-12T19:17:31.990Z,5.00
2023-05-12T19:19:59.138Z,2.80
2023-05-12T19:22:26.650Z,3.63
2023-05-12T19:24:54.063Z,2.92
2023-05-12T19:27:21.166Z,3.42
2023-05-12T19:29:48.608Z,3.30
2023-05-12T19:32:16.081Z,4.45
2023-05-12T19:34:43.152Z,5.45
2023-05-12T19:37:10.608Z,3.45
2023-05-12T19:39:37.686Z,3.88
2023-05-12T19:42:05.089Z,3.22
2023-05-12T19:44:32.028Z,4.10
2023-05-12T19:47:04.541Z,5.60
2023-05-12T19:49:35.981Z,3.20
2023-05-12T19:52:04.768Z,6.07
2023-05-12T19:54:32.356Z,5.85
2023-05-12T19:56:59.390Z,4.80
2023-05-12T19:59:26.832Z,4.63
2023-05-12T20:01:54.131Z,4.35
2023-05-12T20:04:21.468Z,4.43
2023-05-12T20:06:48.389Z,4.82
2023-05-12T20:09:15.422Z,4.55
2023-05-12T20:11:42.486Z,6.80
2023-05-12T20:14:09.593Z,4.43
2023-05-12T20:16:38.176Z,5.15
2023-05-12T20:19:05.497Z,5.78
2023-05-12T20:21:32.597Z,6.22
2023-05-12T20:23:59.564Z,5.63
2023-05-12T20:26:27.540Z,5.43
2023-05-12T20:28:54.615Z,8.35
2023-05-12T20:31:22.265Z,7.10
2023-05-12T20:33:49.293Z,5.95
2023-05-12T20:36:16.274Z,5.65
2023-05-12T20:38:43.236Z,6.45
2023-05-12T20:41:10.224Z,10.13
2023-05-12T20:43:37.322Z,7.20
2023-05-12T20:46:05.181Z,5.68
2023-05-12T20:48:32.883Z,6.53
2023-05-12T20:51:09.791Z,5.72
2023-05-12T20:53:36.733Z,6.97
2023-05-12T20:56:08.169Z,6.20
2023-05-12T20:58:35.600Z,6.15
2023-05-12T21:01:04.128Z,4.88
2023-05-12T21:03:34.944Z,5.93
2023-05-12T21:06:02.074Z,7.95
2023-05-12T21:08:29.065Z,5.40
2023-05-12T21:10:56.424Z,4.70
2023-05-12T21:13:23.350Z,5.55
2023-05-12T21:15:50.494Z,6.57
2023-05-12T21:18:17.455Z,7.55
2023-05-12T21:20:44.484Z,7.03
2023-05-12T21:23:12.454Z,5.90
2023-05-12T21:25:40.057Z,6.25
2023-05-12T21:28:07.480Z,6.10
2023-05-12T21:30:36.758Z,5.78
2023-05-12T21:33:05.474Z,4.57
2023-05-12T21:35:32.822Z,6.70
2023-05-12T21:38:00.161Z,6.57
2023-05-12T21:40:27.554Z,4.35
2023-05-12T21:42:54.899Z,7.05
2023-05-12T21:45:22.459Z,4.85
2023-05-12T21:47:51.267Z,4.38
2023-05-12T21:50:21.590Z,6.35
2023-05-12T21:52:50.009Z,7.07
2023-05-12T21:55:17.525Z,8.30
2023-05-12T21:57:44.847Z,7.38
2023-05-12T22:00:14.510Z,8.48
2023-05-12T22:02:42.097Z,8.95
2023-05-12T22:05:09.549Z,7.40
2023-05-12T22:07:36.512Z,6.50
2023-05-12T22:10:04.665Z,6.28
2023-05-12T22:12:32.265Z,6.82
2023-05-12T22:14:59.228Z,7.53
2023-05-12T22:17:26.286Z,7.70
2023-05-12T22:19:53.202Z,9.43
2023-05-12T22:22:20.448Z,6.25
2023-05-12T22:24:47.577Z,6.43
2023-05-12T22:27:14.565Z,8.98
2023-05-12T22:29:42.655Z,7.07
2023-05-12T22:32:09.520Z,6.88
2023-05-12T22:34:36.442Z,6.07
2023-05-12T22:37:03.449Z,7.55
2023-05-12T22:39:30.649Z,8.90
2023-05-12T22:41:57.561Z,6.72
2023-05-12T22:44:24.494Z,9.27
2023-05-12T22:46:51.488Z,6.35
2023-05-12T22:49:18.413Z,9.18
2023-05-12T22:51:45.563Z,8.63
2023-05-12T22:54:12.463Z,6.90
2023-05-12T22:56:39.342Z,7.55
2023-05-12T22:59:06.283Z,7.35
2023-05-12T23:01:33.234Z,8.07
2023-05-12T23:04:00.309Z,7.28
2023-05-12T23:06:27.396Z,7.35
2023-05-12T23:08:54.406Z,11.00
2023-05-12T23:11:21.498Z,7.07
2023-05-12T23:13:48.419Z,7.03
2023-05-12T23:16:15.460Z,8.27
2023-05-12T23:18:42.431Z,7.80
2023-05-12T23:21:09.339Z,7.45
2023-05-12T23:23:36.187Z,7.10
2023-05-12T23:26:03.321Z,7.72
2023-05-12T23:28:30.264Z,9.25
2023-05-12T23:30:57.226Z,8.07
2023-05-12T23:33:24.295Z,8.07
2023-05-12T23:35:51.703Z,9.88
2023-05-12T23:38:19.062Z,7.28
2023-05-12T23:40:46.490Z,7.80
2023-05-12T23:43:13.856Z,7.95
2023-05-12T23:45:41.573Z,10.52
2023-05-12T23:48:08.996Z,7.28
2023-05-12T23:50:36.400Z,7.60
2023-05-12T23:53:03.724Z,7.22
2023-05-12T23:55:31.081Z,8.48
2023-05-12T23:57:58.570Z,8.15
